Time;durP1;ratioP1;P1;durP2;ratioP2;P2;SDS_P1;SDS_P2;PMS_P1;PMS_P2;Temp;Humidity;BMP_temperature;BMP_pressure;BME280_temperature;BME280_humidity;BME280_pressure;Samples;Min_cycle;Max_cycle;Signal;HPM_P1;HPM_P2
2021/11/18 00:00:35;;;;;;;;;;;;;;;;;;2082286;28;19925;-48
2021/11/18 00:01:36;;;;;;;;;;;;;;;;;;2079448;28;19948;-48
2021/11/18 00:02:36;;;;;;;;;;;;;;;;;;2078535;28;20291;-49
2021/11/18 00:03:37;;;;;;;;;;;;;;;;;;2067236;28;19932;-49
2021/11/18 00:04:38;;;;;;;;;;;;;;;;;;2066746;28;19929;-48
2021/11/18 00:05:39;;;;;;;;;;;;;;;;;;2076990;28;19957;-47
2021/11/18 00:06:41;;;;;;;;;;;;;;;;;;2074271;28;20370;-48
2021/11/18 00:07:42;;;;;;;;;;;;;;;;;;2073121;28;19925;-48
2021/11/18 00:08:43;;;;;;;;;;;;;;;;;;2076063;28;19930;-48
2021/11/18 00:09:44;;;;;;;;;;;;;;;;;;2074287;28;19957;-49
2021/11/18 00:10:44;;;;;;;;;;;;;;;;;;2072481;28;19961;-49
2021/11/18 00:11:45;;;;;;;;;;;;;;;;;;2075461;28;19932;-48
2021/11/18 00:12:46;;;;;;;;;;;;;;;;;;2074152;28;19926;-48
2021/11/18 00:13:47;;;;;;;;;;;;;;;;;;2073147;28;19933;-49
2021/11/18 00:14:48;;;;;;;;;;;;;;;;;;2080991;28;19925;-48
2021/11/18 00:15:49;;;;;;;;;;;;;;;;;;2082469;28;19971;-48
2021/11/18 00:16:50;;;;;;;;;;;;;;;;;;2076141;28;20072;-47
2021/11/18 00:17:51;;;;;;;;;;;;;;;;;;2081836;28;19931;-48
2021/11/18 00:18:52;;;;;;;;;;;;;;;;;;2082431;28;19950;-49
2021/11/18 00:19:53;;;;;;;;;;;;;;;;;;2075376;28;19925;-52
2021/11/18 00:20:54;;;;;;;;;;;;;;;;;;2082245;28;19925;-49
2021/11/18 00:21:55;;;;;;;;;;;;;;;;;;2082311;28;19925;-49
2021/11/18 00:22:55;;;;;;;;;;;;;;;;;;2076726;28;19925;-48
2021/11/18 00:23:56;;;;;;;;;;;;;;;;;;2074023;28;19972;-48
2021/11/18 00:24:57;;;;;;;;;;;;;;;;;;2074034;28;20409;-49
2021/11/18 00:25:58;;;;;;;;;;;;;;;;;;2074068;28;20007;-49
2021/11/18 00:26:58;;;;;;;;;;;;;;;;;;2082348;28;19932;-48
2021/11/18 00:27:59;;;;;;;;;;;;;;;;;;2082212;28;19925;-48
2021/11/18 00:29:00;;;;;;;;;;;;;;;;;;2074026;28;19929;-49
2021/11/18 00:30:01;;;;;;;;;;;;;;;;;;2082384;28;19925;-48
2021/11/18 00:31:02;;;;;;;;;;;;;;;;;;2081929;28;20325;-52
2021/11/18 00:32:03;;;;;;;;;;;;;;;;;;2075531;28;19968;-49
2021/11/18 00:33:04;;;;;;;;;;;;;;;;;;2082331;28;19955;-48
2021/11/18 00:34:05;;;;;;;;;;;;;;;;;;2081107;28;19924;-48
2021/11/18 00:35:05;;;;;;;;;;;;;;;;;;2075285;28;20394;-49
2021/11/18 00:36:07;;;;;;;;;;;;;;;;;;2082184;28;19925;-48
2021/11/18 00:37:08;;;;;;;;;;;;;;;;;;2080320;28;19929;-51
2021/11/18 00:38:09;;;;;;;;;;;;;;;;;;2077274;28;19980;-48
2021/11/18 00:39:10;;;;;;;;;;;;;;;;;;2082126;28;19932;-48
2021/11/18 00:40:11;;;;;;;;;;;;;;;;;;2078636;28;20413;-49
2021/11/18 00:41:12;;;;;;;;;;;;;;;;;;2076246;28;19936;-50
2021/11/18 00:42:13;;;;;;;;;;;;;;;;;;2074136;28;20429;-48
2021/11/18 00:43:14;;;;;;;;;;;;;;;;;;2072142;28;19933;-48
2021/11/18 00:44:14;;;;;;;;;;;;;;;;;;2079445;28;19976;-48
2021/11/18 00:45:15;;;;;;;;;;;;;;;;;;2074120;28;19972;-49
2021/11/18 00:46:16;;;;;;;;;;;;;;;;;;2072998;28;19936;-48
2021/11/18 00:47:17;;;;;;;;;;;;;;;;;;2075684;28;19931;-48
2021/11/18 00:48:18;;;;;;;;;;;;;;;;;;2074038;28;20286;-49
2021/11/18 00:49:19;;;;;;;;;;;;;;;;;;2073292;28;19991;-48
2021/11/18 00:50:20;;;;;;;;;;;;;;;;;;2075144;28;20393;-43
2021/11/18 00:51:21;;;;;;;;;;;;;;;;;;2074082;28;19926;-43
2021/11/18 00:52:22;;;;;;;;;;;;;;;;;;2072701;28;19926;-43
2021/11/18 00:53:23;;;;;;;;;;;;;;;;;;2080768;28;19929;-43
2021/11/18 00:54:24;;;;;;;;;;;;;;;;;;2082279;28;19932;-49
2021/11/18 00:55:25;;;;;;;;;;;;;;;;;;2075699;28;20298;-48
2021/11/18 00:56:25;;;;;;;;;;;;;;;;;;2081429;28;19925;-48
2021/11/18 00:57:26;;;;;;;;;;;;;;;;;;2082181;28;19932;-48
2021/11/18 00:58:27;;;;;;;;;;;;;;;;;;2075198;28;20325;-48
2021/11/18 00:59:30;;;;;;;;;;;;;;;;;;2082061;28;20278;-49
2021/11/18 01:00:30;;;;;;;;;;;;;;;;;;2081952;28;20020;-48
2021/11/18 01:01:31;;;;;;;;;;;;;;;;;;2076132;28;19928;-48
2021/11/18 01:02:33;;;;;;;;;;;;;;;;;;2074017;28;20183;-48
2021/11/18 01:03:33;;;;;;;;;;;;;;;;;;2072463;28;20405;-48
2021/11/18 01:04:34;;;;;;;;;;;;;;;;;;2074623;28;19972;-48
2021/11/18 01:05:35;;;;;;;;;;;;;;;;;;2073760;28;19932;-49
2021/11/18 01:06:36;;;;;;;;;;;;;;;;;;2073908;28;19980;-50
2021/11/18 01:07:37;;;;;;;;;;;;;;;;;;2074824;28;20287;-48
2021/11/18 01:08:38;;;;;;;;;;;;;;;;;;2081915;28;20378;-50
2021/11/18 01:09:38;;;;;;;;;;;;;;;;;;2081190;28;19925;-49
2021/11/18 01:10:39;;;;;;;;;;;;;;;;;;2075044;28;20437;-48
2021/11/18 01:11:40;;;;;;;;;;;;;;;;;;2073761;28;19932;-48
2021/11/18 01:12:41;;;;;;;;;;;;;;;;;;2073214;28;19932;-48
2021/11/18 01:13:42;;;;;;;;;;;;;;;;;;2074892;28;19925;-48
2021/11/18 01:14:43;;;;;;;;;;;;;;;;;;2073672;28;19936;-49
2021/11/18 01:15:43;;;;;;;;;;;;;;;;;;2073109;28;19937;-49
2021/11/18 01:16:44;;;;;;;;;;;;;;;;;;2077443;28;19931;-48
2021/11/18 01:17:45;;;;;;;;;;;;;;;;;;2081972;28;20415;-49
2021/11/18 01:18:46;;;;;;;;;;;;;;;;;;2078169;28;20383;-49
2021/11/18 01:19:47;;;;;;;;;;;;;;;;;;2078676;28;20294;-49
2021/11/18 01:20:48;;;;;;;;;;;;;;;;;;2082010;28;19929;-48
2021/11/18 01:21:49;;;;;;;;;;;;;;;;;;2077539;28;19939;-49
2021/11/18 01:22:50;;;;;;;;;;;;;;;;;;2079200;28;20341;-49
2021/11/18 01:23:51;;;;;;;;;;;;;;;;;;2081760;28;19925;-48
2021/11/18 01:24:51;;;;;;;;;;;;;;;;;;2077426;28;19925;-48
2021/11/18 01:25:52;;;;;;;;;;;;;;;;;;2077146;28;20388;-48
2021/11/18 01:26:56;;;;;;;;;;;;;;;;;;2081959;28;19998;-48
2021/11/18 01:27:59;;;;;;;;;;;;;;;;;;2076360;28;19929;-49
2021/11/18 01:29:01;;;;;;;;;;;;;;;;;;2080746;28;20306;-49
2021/11/18 01:30:01;;;;;;;;;;;;;;;;;;2081846;28;19988;-49
2021/11/18 01:31:02;;;;;;;;;;;;;;;;;;2076152;28;19997;-48
2021/11/18 01:32:03;;;;;;;;;;;;;;;;;;2072939;28;20379;-48
2021/11/18 01:33:04;;;;;;;;;;;;;;;;;;2073823;28;19932;-48
2021/11/18 01:34:05;;;;;;;;;;;;;;;;;;2072812;28;19932;-48
2021/11/18 01:35:06;;;;;;;;;;;;;;;;;;2081560;28;19925;-48
2021/11/18 01:36:07;;;;;;;;;;;;;;;;;;2081847;28;19925;-48
2021/11/18 01:37:07;;;;;;;;;;;;;;;;;;2074718;28;19929;-49
2021/11/18 01:38:08;;;;;;;;;;;;;;;;;;2065672;28;19925;-48
2021/11/18 01:39:09;;;;;;;;;;;;;;;;;;2065554;28;19929;-49
2021/11/18 01:40:10;;;;;;;;;;;;;;;;;;2073571;28;19930;-48
2021/11/18 01:41:11;;;;;;;;;;;;;;;;;;2073308;28;20024;-47
2021/11/18 01:42:12;;;;;;;;;;;;;;;;;;2073682;28;19929;-49
2021/11/18 01:43:13;;;;;;;;;;;;;;;;;;2074381;28;20377;-49
2021/11/18 01:44:14;;;;;;;;;;;;;;;;;;2073741;28;19945;-49
2021/11/18 01:45:16;;;;;;;;;;;;;;;;;;2073017;28;20458;-49
2021/11/18 01:46:16;;;;;;;;;;;;;;;;;;2074805;28;20373;-48
2021/11/18 01:47:17;;;;;;;;;;;;;;;;;;2073605;28;19925;-48
2021/11/18 01:48:18;;;;;;;;;;;;;;;;;;2072928;28;19925;-48
2021/11/18 01:49:19;;;;;;;;;;;;;;;;;;2076289;28;19929;-48
2021/11/18 01:50:20;;;;;;;;;;;;;;;;;;2081763;28;20314;-48
2021/11/18 01:51:21;;;;;;;;;;;;;;;;;;2079265;28;19975;-48
2021/11/18 01:52:21;;;;;;;;;;;;;;;;;;2077382;28;19925;-48
2021/11/18 01:53:22;;;;;;;;;;;;;;;;;;2081632;28;19925;-48
2021/11/18 01:54:23;;;;;;;;;;;;;;;;;;2077659;28;19929;-48
2021/11/18 01:55:24;;;;;;;;;;;;;;;;;;2078505;28;20367;-48
2021/11/18 01:56:24;;;;;;;;;;;;;;;;;;2081808;28;19925;-49
2021/11/18 01:57:27;;;;;;;;;;;;;;;;;;2077191;28;19930;-48
2021/11/18 01:58:27;;;;;;;;;;;;;;;;;;2075707;28;19929;-48
2021/11/18 01:59:28;;;;;;;;;;;;;;;;;;2073613;28;19936;-48
2021/11/18 02:00:29;;;;;;;;;;;;;;;;;;2072420;28;20275;-49
2021/11/18 02:01:30;;;;;;;;;;;;;;;;;;2079416;28;19971;-48
2021/11/18 02:02:31;;;;;;;;;;;;;;;;;;2081758;28;19925;-47
2021/11/18 02:03:36;;;;;;;;;;;;;;;;;;2071710;28;19933;-49
2021/11/18 02:04:36;;;;;;;;;;;;;;;;;;2074022;28;19925;-48
2021/11/18 02:05:37;;;;;;;;;;;;;;;;;;2073533;28;19925;-48
2021/11/18 02:06:38;;;;;;;;;;;;;;;;;;2072262;28;19925;-48
2021/11/18 02:07:39;;;;;;;;;;;;;;;;;;2081199;28;20306;-48
2021/11/18 02:08:40;;;;;;;;;;;;;;;;;;2081601;28;20008;-47
2021/11/18 02:09:40;;;;;;;;;;;;;;;;;;2073568;28;19925;-48
2021/11/18 02:10:41;;;;;;;;;;;;;;;;;;2081457;28;19966;-48
2021/11/18 02:11:42;;;;;;;;;;;;;;;;;;2081647;28;19925;-49
2021/11/18 02:12:43;;;;;;;;;;;;;;;;;;2074623;28;19972;-48
2021/11/18 02:13:44;;;;;;;;;;;;;;;;;;2081465;28;20016;-49
2021/11/18 02:14:45;;;;;;;;;;;;;;;;;;2081586;28;19925;-47
2021/11/18 02:15:46;;;;;;;;;;;;;;;;;;2074594;28;20294;-48
2021/11/18 02:16:47;;;;;;;;;;;;;;;;;;2081474;28;20378;-48
2021/11/18 02:17:47;;;;;;;;;;;;;;;;;;2081489;28;20152;-48
2021/11/18 02:18:48;;;;;;;;;;;;;;;;;;2074585;28;19988;-48
2021/11/18 02:19:49;;;;;;;;;;;;;;;;;;2081536;28;19925;-48
2021/11/18 02:20:50;;;;;;;;;;;;;;;;;;2080954;28;19929;-48
2021/11/18 02:21:51;;;;;;;;;;;;;;;;;;2074474;28;20387;-49
2021/11/18 02:22:52;;;;;;;;;;;;;;;;;;2073459;28;19925;-49
2021/11/18 02:23:52;;;;;;;;;;;;;;;;;;2072979;28;19926;-48
2021/11/18 02:24:53;;;;;;;;;;;;;;;;;;2073478;28;19933;-49
2021/11/18 02:25:54;;;;;;;;;;;;;;;;;;2072761;28;20329;-49
2021/11/18 02:26:55;;;;;;;;;;;;;;;;;;2071817;28;19933;-48
2021/11/18 02:27:56;;;;;;;;;;;;;;;;;;2075493;28;19925;-49
2021/11/18 02:28:57;;;;;;;;;;;;;;;;;;2081674;28;19948;-49
2021/11/18 02:29:57;;;;;;;;;;;;;;;;;;2078180;28;19925;-48
2021/11/18 02:30:58;;;;;;;;;;;;;;;;;;2075587;28;19925;-48
2021/11/18 02:31:59;;;;;;;;;;;;;;;;;;2073409;28;19925;-48
2021/11/18 02:33:00;;;;;;;;;;;;;;;;;;2071643;28;20173;-48
2021/11/18 02:34:01;;;;;;;;;;;;;;;;;;2075839;28;20294;-48
2021/11/18 02:35:02;;;;;;;;;;;;;;;;;;2073182;28;20409;-48
2021/11/18 02:36:03;;;;;;;;;;;;;;;;;;2072136;28;19975;-48
2021/11/18 02:37:03;;;;;;;;;;;;;;;;;;2076440;28;20404;-48
2021/11/18 02:38:04;;;;;;;;;;;;;;;;;;2073236;28;19941;-48
2021/11/18 02:39:05;;;;;;;;;;;;;;;;;;2072331;28;19995;-48
2021/11/18 02:40:06;;;;;;;;;;;;;;;;;;2079318;28;19925;-48
2021/11/18 02:41:07;;;;;;;;;;;;;;;;;;2081506;28;20019;-48
2021/11/18 02:42:08;;;;;;;;;;;;;;;;;;2075707;28;20310;-48
2021/11/18 02:43:08;;;;;;;;;;;;;;;;;;2078954;28;19940;-49
2021/11/18 02:44:09;;;;;;;;;;;;;;;;;;2080272;28;19980;-48
2021/11/18 02:45:10;;;;;;;;;;;;;;;;;;2074048;28;20291;-47
2021/11/18 02:46:11;;;;;;;;;;;;;;;;;;2080651;28;19932;-48
2021/11/18 02:47:12;;;;;;;;;;;;;;;;;;2081411;28;19929;-48
2021/11/18 02:48:13;;;;;;;;;;;;;;;;;;2074519;28;19961;-48
2021/11/18 02:49:14;;;;;;;;;;;;;;;;;;2081210;28;20302;-48
2021/11/18 02:50:15;;;;;;;;;;;;;;;;;;2081341;28;20271;-48
2021/11/18 02:51:15;;;;;;;;;;;;;;;;;;2075860;28;19925;-48
2021/11/18 02:52:16;;;;;;;;;;;;;;;;;;2073084;28;19930;-48
2021/11/18 02:53:17;;;;;;;;;;;;;;;;;;2073093;28;19956;-48
2021/11/18 02:54:18;;;;;;;;;;;;;;;;;;2073212;28;19926;-48
2021/11/18 02:55:18;;;;;;;;;;;;;;;;;;2081420;28;19975;-48
2021/11/18 02:56:19;;;;;;;;;;;;;;;;;;2081447;28;19941;-48
2021/11/18 02:57:20;;;;;;;;;;;;;;;;;;2074210;28;20326;-48
2021/11/18 02:58:21;;;;;;;;;;;;;;;;;;2081273;28;19925;-49
2021/11/18 02:59:22;;;;;;;;;;;;;;;;;;2081359;28;19932;-47
2021/11/18 03:00:23;;;;;;;;;;;;;;;;;;2073203;28;19932;-48
2021/11/18 03:01:24;;;;;;;;;;;;;;;;;;2073129;28;19929;-47
2021/11/18 03:02:25;;;;;;;;;;;;;;;;;;2072632;28;20036;-48
2021/11/18 03:03:26;;;;;;;;;;;;;;;;;;2073946;28;20369;-48
2021/11/18 03:04:26;;;;;;;;;;;;;;;;;;2081317;28;19925;-48
2021/11/18 03:05:27;;;;;;;;;;;;;;;;;;2079591;28;19983;-49
2021/11/18 03:06:28;;;;;;;;;;;;;;;;;;2075972;28;19925;-48
2021/11/18 03:07:29;;;;;;;;;;;;;;;;;;2081205;28;19976;-49
2021/11/18 03:08:30;;;;;;;;;;;;;;;;;;2078319;28;19932;-48
2021/11/18 03:09:30;;;;;;;;;;;;;;;;;;2074995;28;19925;-48
2021/11/18 03:10:31;;;;;;;;;;;;;;;;;;2073293;28;20298;-49
2021/11/18 03:11:32;;;;;;;;;;;;;;;;;;2071413;28;19980;-48
2021/11/18 03:12:33;;;;;;;;;;;;;;;;;;2076465;28;19929;-48
2021/11/18 03:13:34;;;;;;;;;;;;;;;;;;2081153;28;19925;-48
2021/11/18 03:14:34;;;;;;;;;;;;;;;;;;2076659;28;20260;-48
2021/11/18 03:15:35;;;;;;;;;;;;;;;;;;2078547;28;19932;-47
2021/11/18 03:16:36;;;;;;;;;;;;;;;;;;2081328;28;20009;-48
2021/11/18 03:17:37;;;;;;;;;;;;;;;;;;2076532;28;19925;-49
2021/11/18 03:18:38;;;;;;;;;;;;;;;;;;2074669;28;20040;-49
2021/11/18 03:19:39;;;;;;;;;;;;;;;;;;2073095;28;20386;-49
2021/11/18 03:20:41;;;;;;;;;;;;;;;;;;2071898;28;19961;-48
2021/11/18 03:21:42;;;;;;;;;;;;;;;;;;2079791;28;19925;-49
2021/11/18 03:22:43;;;;;;;;;;;;;;;;;;2081097;28;19975;-49
2021/11/18 03:23:43;;;;;;;;;;;;;;;;;;2076474;28;19930;-48
2021/11/18 03:24:44;;;;;;;;;;;;;;;;;;2073287;28;20379;-48
2021/11/18 03:25:46;;;;;;;;;;;;;;;;;;2073023;28;20027;-48
2021/11/18 03:26:47;;;;;;;;;;;;;;;;;;2073773;28;20008;-49
2021/11/18 03:27:48;;;;;;;;;;;;;;;;;;2072823;28;19932;-48
2021/11/18 03:28:48;;;;;;;;;;;;;;;;;;2072854;28;19925;-49
2021/11/18 03:29:49;;;;;;;;;;;;;;;;;;2073913;28;19936;-49
2021/11/18 03:30:50;;;;;;;;;;;;;;;;;;2072990;28;19979;-48
2021/11/18 03:31:51;;;;;;;;;;;;;;;;;;2072870;28;20334;-49
2021/11/18 03:32:52;;;;;;;;;;;;;;;;;;2072819;28;20388;-47
2021/11/18 03:33:53;;;;;;;;;;;;;;;;;;2080820;28;19925;-49
2021/11/18 03:34:54;;;;;;;;;;;;;;;;;;2081213;28;19929;-50
2021/11/18 03:35:55;;;;;;;;;;;;;;;;;;2074226;28;19932;-48
2021/11/18 03:36:55;;;;;;;;;;;;;;;;;;2072967;28;19980;-48
2021/11/18 03:37:56;;;;;;;;;;;;;;;;;;2073008;28;19925;-48
2021/11/18 03:38:57;;;;;;;;;;;;;;;;;;2074379;28;19926;-48
2021/11/18 03:39:58;;;;;;;;;;;;;;;;;;2081448;28;19925;-43
2021/11/18 03:41:03;;;;;;;;;;;;;;;;;;2079918;28;19925;-43
2021/11/18 03:42:04;;;;;;;;;;;;;;;;;;2074175;28;20055;-43
2021/11/18 03:43:05;;;;;;;;;;;;;;;;;;2072868;28;19930;-43
2021/11/18 03:44:06;;;;;;;;;;;;;;;;;;2071889;28;19925;-43
2021/11/18 03:45:07;;;;;;;;;;;;;;;;;;2077022;28;19929;-43
2021/11/18 03:46:08;;;;;;;;;;;;;;;;;;2081195;28;19925;-43
2021/11/18 03:47:08;;;;;;;;;;;;;;;;;;2076557;28;20012;-43
2021/11/18 03:48:10;;;;;;;;;;;;;;;;;;2075599;28;19932;-43
2021/11/18 03:49:10;;;;;;;;;;;;;;;;;;2072985;28;19956;-43
2021/11/18 03:50:11;;;;;;;;;;;;;;;;;;2071021;28;19933;-43
2021/11/18 03:51:12;;;;;;;;;;;;;;;;;;2079099;28;19929;-43
2021/11/18 03:52:13;;;;;;;;;;;;;;;;;;2080975;28;19925;-43
2021/11/18 03:53:14;;;;;;;;;;;;;;;;;;2076381;28;20504;-43
2021/11/18 03:54:15;;;;;;;;;;;;;;;;;;2078775;28;20337;-43
2021/11/18 03:55:15;;;;;;;;;;;;;;;;;;2081348;28;20297;-43
2021/11/18 03:56:16;;;;;;;;;;;;;;;;;;2077188;28;20267;-43
2021/11/18 03:57:17;;;;;;;;;;;;;;;;;;2080788;28;19931;-43
2021/11/18 03:58:18;;;;;;;;;;;;;;;;;;2082543;28;19925;-43
2021/11/18 03:59:18;;;;;;;;;;;;;;;;;;2076315;28;19930;-43
2021/11/18 04:00:19;;;;;;;;;;;;;;;;;;2074205;28;19957;-43
2021/11/18 04:01:20;;;;;;;;;;;;;;;;;;2074243;28;19925;-43
2021/11/18 04:02:21;;;;;;;;;;;;;;;;;;2074700;28;19925;-43
2021/11/18 04:03:22;;;;;;;;;;;;;;;;;;2071242;28;20074;-43
2021/11/18 04:04:23;;;;;;;;;;;;;;;;;;2065679;28;19960;-43
2021/11/18 04:05:24;;;;;;;;;;;;;;;;;;2074889;28;20004;-43
2021/11/18 04:06:25;;;;;;;;;;;;;;;;;;2074208;28;20375;-42
2021/11/18 04:07:25;;;;;;;;;;;;;;;;;;2073655;28;19926;-43
2021/11/18 04:08:26;;;;;;;;;;;;;;;;;;2075613;28;19925;-43
2021/11/18 04:09:27;;;;;;;;;;;;;;;;;;2074117;28;20451;-43
2021/11/18 04:10:29;;;;;;;;;;;;;;;;;;2073714;28;19925;-43
2021/11/18 04:11:30;;;;;;;;;;;;;;;;;;2077685;28;20016;-43
2021/11/18 04:12:31;;;;;;;;;;;;;;;;;;2082197;28;19925;-43
2021/11/18 04:13:31;;;;;;;;;;;;;;;;;;2079116;28;20366;-43
2021/11/18 04:14:32;;;;;;;;;;;;;;;;;;2078611;28;20385;-43
2021/11/18 04:15:33;;;;;;;;;;;;;;;;;;2082442;28;19929;-43
2021/11/18 04:16:34;;;;;;;;;;;;;;;;;;2077875;28;19933;-43
2021/11/18 04:17:35;;;;;;;;;;;;;;;;;;2079514;28;19950;-43
2021/11/18 04:18:36;;;;;;;;;;;;;;;;;;2082343;28;19925;-43
2021/11/18 04:19:36;;;;;;;;;;;;;;;;;;2077911;28;20278;-43
2021/11/18 04:20:37;;;;;;;;;;;;;;;;;;2079734;28;19925;-43
2021/11/18 04:21:38;;;;;;;;;;;;;;;;;;2082217;28;20348;-43
2021/11/18 04:22:39;;;;;;;;;;;;;;;;;;2076725;28;20294;-43
2021/11/18 04:23:40;;;;;;;;;;;;;;;;;;2075501;28;20254;-43
2021/11/18 04:24:41;;;;;;;;;;;;;;;;;;2074231;28;19930;-43
2021/11/18 04:25:41;;;;;;;;;;;;;;;;;;2073064;28;20283;-43
2021/11/18 04:26:44;;;;;;;;;;;;;;;;;;2080733;28;20271;-43
2021/11/18 04:27:48;;;;;;;;;;;;;;;;;;2079065;28;20474;-43
2021/11/18 04:28:49;;;;;;;;;;;;;;;;;;2073889;28;19925;-43
2021/11/18 04:29:50;;;;;;;;;;;;;;;;;;2077873;28;19947;-43
2021/11/18 04:30:51;;;;;;;;;;;;;;;;;;2082383;28;20296;-43
2021/11/18 04:31:52;;;;;;;;;;;;;;;;;;2075295;28;19926;-43
2021/11/18 04:32:53;;;;;;;;;;;;;;;;;;2081139;28;19925;-43
2021/11/18 04:33:54;;;;;;;;;;;;;;;;;;2082186;28;19929;-43
2021/11/18 04:34:55;;;;;;;;;;;;;;;;;;2075943;28;19929;-43
2021/11/18 04:35:55;;;;;;;;;;;;;;;;;;2074145;28;20302;-43
2021/11/18 04:36:56;;;;;;;;;;;;;;;;;;2073952;28;20414;-43
2021/11/18 04:37:57;;;;;;;;;;;;;;;;;;2074617;28;19926;-43
2021/11/18 04:38:58;;;;;;;;;;;;;;;;;;2082099;28;19932;-43
2021/11/18 04:39:59;;;;;;;;;;;;;;;;;;2081726;28;19972;-43
2021/11/18 04:41:00;;;;;;;;;;;;;;;;;;2074589;28;20337;-43
2021/11/18 04:42:00;;;;;;;;;;;;;;;;;;2082041;28;19925;-43
2021/11/18 04:43:01;;;;;;;;;;;;;;;;;;2081113;28;20016;-43
2021/11/18 04:44:02;;;;;;;;;;;;;;;;;;2075158;28;19925;-43
2021/11/18 04:45:03;;;;;;;;;;;;;;;;;;2074071;28;19932;-43
2021/11/18 04:46:04;;;;;;;;;;;;;;;;;;2073465;28;19933;-43
2021/11/18 04:47:07;;;;;;;;;;;;;;;;;;2076886;28;20631;-43
2021/11/18 04:48:08;;;;;;;;;;;;;;;;;;2082202;28;19925;-43
2021/11/18 04:49:09;;;;;;;;;;;;;;;;;;2078636;28;20406;-43
2021/11/18 04:50:09;;;;;;;;;;;;;;;;;;2078711;28;20389;-43
2021/11/18 04:51:10;;;;;;;;;;;;;;;;;;2082086;28;19931;-43
2021/11/18 04:52:11;;;;;;;;;;;;;;;;;;2077524;28;19933;-43
2021/11/18 04:53:12;;;;;;;;;;;;;;;;;;2076323;28;20028;-43
2021/11/18 04:54:13;;;;;;;;;;;;;;;;;;2073838;28;19933;-43
2021/11/18 04:55:13;;;;;;;;;;;;;;;;;;2072752;28;19926;-43
2021/11/18 04:56:14;;;;;;;;;;;;;;;;;;2075644;28;19929;-43
2021/11/18 04:57:15;;;;;;;;;;;;;;;;;;2073863;28;19926;-43
2021/11/18 04:58:16;;;;;;;;;;;;;;;;;;2071758;28;20335;-43
2021/11/18 04:59:17;;;;;;;;;;;;;;;;;;2073716;28;19926;-43
2021/11/18 05:00:18;;;;;;;;;;;;;;;;;;2073878;28;20367;-43
2021/11/18 05:01:19;;;;;;;;;;;;;;;;;;2073584;28;19957;-43
2021/11/18 05:02:20;;;;;;;;;;;;;;;;;;2065664;28;19972;-43
2021/11/18 05:03:20;;;;;;;;;;;;;;;;;;2064273;28;20368;-43
2021/11/18 05:04:21;;;;;;;;;;;;;;;;;;2072256;28;19933;-43
2021/11/18 05:05:22;;;;;;;;;;;;;;;;;;2082058;28;19925;-43
2021/11/18 05:06:23;;;;;;;;;;;;;;;;;;2081996;28;19926;-43
2021/11/18 05:07:24;;;;;;;;;;;;;;;;;;2073952;28;19984;-43
2021/11/18 05:08:24;;;;;;;;;;;;;;;;;;2081935;28;19975;-43
2021/11/18 05:09:25;;;;;;;;;;;;;;;;;;2081295;28;19925;-43
2021/11/18 05:10:31;;;;;;;;;;;;;;;;;;2073225;28;19925;-43
2021/11/18 05:11:31;;;;;;;;;;;;;;;;;;2073910;28;19948;-43
2021/11/18 05:12:32;;;;;;;;;;;;;;;;;;2072839;28;19926;-43
2021/11/18 05:13:33;;;;;;;;;;;;;;;;;;2073679;28;19926;-43
2021/11/18 05:14:34;;;;;;;;;;;;;;;;;;2073791;28;19936;-43
2021/11/18 05:15:35;;;;;;;;;;;;;;;;;;2073336;28;20386;-43
2021/11/18 05:16:38;;;;;;;;;;;;;;;;;;2081940;28;19982;-43
2021/11/18 05:17:39;;;;;;;;;;;;;;;;;;2081878;28;19925;-43
2021/11/18 05:18:40;;;;;;;;;;;;;;;;;;2073813;28;19926;-43
2021/11/18 05:19:41;;;;;;;;;;;;;;;;;;2081872;28;19925;-42
2021/11/18 05:20:42;;;;;;;;;;;;;;;;;;2082042;28;19929;-43
2021/11/18 05:21:43;;;;;;;;;;;;;;;;;;2073877;28;19933;-43
2021/11/18 05:22:44;;;;;;;;;;;;;;;;;;2073796;28;19929;-43
2021/11/18 05:23:45;;;;;;;;;;;;;;;;;;2073183;28;19925;-43
2021/11/18 05:24:46;;;;;;;;;;;;;;;;;;2075887;28;20444;-43
2021/11/18 05:25:47;;;;;;;;;;;;;;;;;;2080026;28;19925;-43
2021/11/18 05:26:47;;;;;;;;;;;;;;;;;;2073210;28;19972;-43
2021/11/18 05:27:48;;;;;;;;;;;;;;;;;;2076605;28;19925;-43
2021/11/18 05:28:49;;;;;;;;;;;;;;;;;;2081903;28;19928;-43
2021/11/18 05:29:50;;;;;;;;;;;;;;;;;;2079164;28;20326;-43
2021/11/18 05:30:51;;;;;;;;;;;;;;;;;;2077778;28;19941;-43
2021/11/18 05:31:52;;;;;;;;;;;;;;;;;;2081855;28;19995;-43
2021/11/18 05:32:53;;;;;;;;;;;;;;;;;;2077401;28;20375;-43
2021/11/18 05:33:54;;;;;;;;;;;;;;;;;;2074429;28;19969;-43
2021/11/18 05:34:54;;;;;;;;;;;;;;;;;;2073791;28;19971;-43
2021/11/18 05:35:55;;;;;;;;;;;;;;;;;;2072199;28;20268;-43
2021/11/18 05:36:56;;;;;;;;;;;;;;;;;;2075582;28;19925;-42
2021/11/18 05:37:57;;;;;;;;;;;;;;;;;;2073649;28;19976;-43
2021/11/18 05:38:58;;;;;;;;;;;;;;;;;;2072762;28;20310;-43
2021/11/18 05:39:59;;;;;;;;;;;;;;;;;;2079501;28;20453;-43
2021/11/18 05:40:59;;;;;;;;;;;;;;;;;;2081980;28;19925;-43
2021/11/18 05:42:00;;;;;;;;;;;;;;;;;;2077195;28;19926;-43
2021/11/18 05:43:01;;;;;;;;;;;;;;;;;;2074756;28;19948;-43
2021/11/18 05:44:03;;;;;;;;;;;;;;;;;;2073450;28;19972;-43
2021/11/18 05:45:04;;;;;;;;;;;;;;;;;;2072498;28;20021;-43
2021/11/18 05:46:05;;;;;;;;;;;;;;;;;;2081055;28;19979;-43
2021/11/18 05:47:06;;;;;;;;;;;;;;;;;;2081733;28;19925;-43
2021/11/18 05:48:08;;;;;;;;;;;;;;;;;;2077190;28;20377;-43
2021/11/18 05:49:08;;;;;;;;;;;;;;;;;;2066194;28;20426;-43
2021/11/18 05:50:09;;;;;;;;;;;;;;;;;;2065589;28;19933;-43
2021/11/18 05:51:10;;;;;;;;;;;;;;;;;;2070185;28;20436;-43
2021/11/18 05:52:11;;;;;;;;;;;;;;;;;;2081848;28;19932;-43
2021/11/18 05:53:11;;;;;;;;;;;;;;;;;;2081749;28;20378;-43
2021/11/18 05:54:12;;;;;;;;;;;;;;;;;;2074809;28;20004;-49
2021/11/18 05:55:13;;;;;;;;;;;;;;;;;;2081694;28;19932;-49
2021/11/18 05:56:14;;;;;;;;;;;;;;;;;;2081657;28;19940;-49
2021/11/18 05:57:15;;;;;;;;;;;;;;;;;;2074641;28;19940;-48
2021/11/18 05:58:16;;;;;;;;;;;;;;;;;;2081652;28;19926;-49
2021/11/18 05:59:16;;;;;;;;;;;;;;;;;;2081689;28;20341;-49
2021/11/18 06:00:17;;;;;;;;;;;;;;;;;;2073387;28;19932;-52
2021/11/18 06:01:18;;;;;;;;;;;;;;;;;;2073601;28;20295;-50
2021/11/18 06:02:19;;;;;;;;;;;;;;;;;;2072918;28;20386;-50
2021/11/18 06:03:20;;;;;;;;;;;;;;;;;;2072731;28;19925;-48
2021/11/18 06:04:21;;;;;;;;;;;;;;;;;;2081617;28;19925;-48
2021/11/18 06:05:23;;;;;;;;;;;;;;;;;;2079960;28;19948;-50
2021/11/18 06:06:24;;;;;;;;;;;;;;;;;;2076822;28;20015;-48
2021/11/18 06:07:25;;;;;;;;;;;;;;;;;;2081726;28;19925;-43
2021/11/18 06:08:26;;;;;;;;;;;;;;;;;;2078479;28;19955;-43
2021/11/18 06:09:26;;;;;;;;;;;;;;;;;;2077931;28;20039;-43
2021/11/18 06:10:27;;;;;;;;;;;;;;;;;;2081592;28;19975;-43
2021/11/18 06:11:28;;;;;;;;;;;;;;;;;;2077214;28;20449;-43
2021/11/18 06:12:29;;;;;;;;;;;;;;;;;;2078720;28;19975;-44
2021/11/18 06:13:30;;;;;;;;;;;;;;;;;;2081595;28;20326;-43
2021/11/18 06:14:31;;;;;;;;;;;;;;;;;;2076646;28;19925;-43
2021/11/18 06:15:31;;;;;;;;;;;;;;;;;;2079615;28;20011;-43
2021/11/18 06:16:32;;;;;;;;;;;;;;;;;;2081586;28;20283;-43
2021/11/18 06:17:33;;;;;;;;;;;;;;;;;;2077102;28;19926;-43
2021/11/18 06:18:34;;;;;;;;;;;;;;;;;;2074516;28;20059;-43
2021/11/18 06:19:35;;;;;;;;;;;;;;;;;;2073560;28;19925;-43
2021/11/18 06:20:36;;;;;;;;;;;;;;;;;;2071242;28;19926;-43
2021/11/18 06:21:37;;;;;;;;;;;;;;;;;;2080091;28;19925;-43
2021/11/18 06:22:38;;;;;;;;;;;;;;;;;;2074471;28;19991;-43
2021/11/18 06:23:38;;;;;;;;;;;;;;;;;;2071264;28;19949;-43
2021/11/18 06:24:39;;;;;;;;;;;;;;;;;;2073459;28;19932;-43
2021/11/18 06:25:40;;;;;;;;;;;;;;;;;;2073391;28;19926;-43
2021/11/18 06:26:41;;;;;;;;;;;;;;;;;;2074200;28;20367;-43
2021/11/18 06:27:42;;;;;;;;;;;;;;;;;;2081387;28;20341;-43
2021/11/18 06:28:43;;;;;;;;;;;;;;;;;;2080823;28;19943;-43
2021/11/18 06:29:43;;;;;;;;;;;;;;;;;;2074077;28;19932;-43
2021/11/18 06:30:44;;;;;;;;;;;;;;;;;;2081459;28;20263;-43
2021/11/18 06:31:45;;;;;;;;;;;;;;;;;;2080027;28;19925;-43
2021/11/18 06:32:46;;;;;;;;;;;;;;;;;;2072749;28;19925;-43
2021/11/18 06:33:47;;;;;;;;;;;;;;;;;;2073318;28;20379;-43
2021/11/18 06:34:49;;;;;;;;;;;;;;;;;;2072339;28;20278;-43
2021/11/18 06:35:50;;;;;;;;;;;;;;;;;;2074887;28;20567;-43
2021/11/18 06:37:06;;;;;;;;;;;;;;;;;;2073525;28;19925;-48
2021/11/18 06:38:07;;;;;;;;;;;;;;;;;;2072773;28;19926;-48
2021/11/18 06:39:08;;;;;;;;;;;;;;;;;;2081165;28;19925;-48
2021/11/18 06:40:13;;;;;;;;;;;;;;;;;;2081511;28;19982;-47
2021/11/18 06:41:15;;;;;;;;;;;;;;;;;;2074331;28;19991;-48
2021/11/18 06:42:16;;;;;;;;;;;;;;;;;;2081294;28;20373;-48
2021/11/18 06:43:17;;;;;;;;;;;;;;;;;;2080671;28;19944;-48
2021/11/18 06:44:18;;;;;;;;;;;;;;;;;;2073408;28;19956;-48
2021/11/18 06:45:18;;;;;;;;;;;;;;;;;;2073035;28;19926;-48
2021/11/18 06:46:19;;;;;;;;;;;;;;;;;;2072855;28;19926;-48
2021/11/18 06:47:20;;;;;;;;;;;;;;;;;;2075546;28;19925;-49
2021/11/18 06:48:22;;;;;;;;;;;;;;;;;;2081316;28;19932;-48
2021/11/18 06:49:23;;;;;;;;;;;;;;;;;;2078759;28;19968;-48
2021/11/18 06:50:24;;;;;;;;;;;;;;;;;;2077068;28;20389;-49
2021/11/18 06:51:25;;;;;;;;;;;;;;;;;;2081312;28;19929;-48
2021/11/18 06:52:26;;;;;;;;;;;;;;;;;;2077504;28;19965;-49
2021/11/18 06:53:26;;;;;;;;;;;;;;;;;;2075570;28;19972;-48
2021/11/18 06:54:27;;;;;;;;;;;;;;;;;;2073166;28;20189;-48
2021/11/18 06:55:28;;;;;;;;;;;;;;;;;;2071578;28;19945;-49
2021/11/18 06:56:29;;;;;;;;;;;;;;;;;;2076630;28;19979;-48